Lehmann Sound — V2EM3 — position and weather

sailwx.info

Track history (hours):
 
Tides and Currents Weather Stations Pressure Air Temp Water Temp Dewpoint Dewpoint Depression Visibility Wind Speed Wind Dir Waves Ship Positions

Lehmann Sound

Last reported at 2015-Mar-22 22:07 UTC. Time now 2015-Mar-27 11:59 UTC.
Position N 50°34' E 000°17'.

Length 90 m; draft 5.9 m.

Type: Cargo ship. MMSI: 305476000.

Date/timePositionNaut miles runAvg speedWind from/ knotsBaromVisibWave heightAir tempDewpointWater temp
2015-Mar-22 22:07N 50°34' E 000°17'5 7.9
2015-Mar-22 21:32N 50°35' E 000°24'9 9.0
2015-Mar-22 20:33N 50°38' E 000°37'1110.8
2015-Mar-22 19:33N 50°45' E 000°50'1511.1
2015-Mar-22 18:13N 50°54' E 001°08'1010.9
2015-Mar-22 17:20N 51°00' E 001°19'810.0
2015-Mar-22 16:33N 51°05' E 001°29'8 7.8
2015-Mar-22 15:34N 51°10' E 001°38'7 6.9
2015-Mar-22 14:33N 51°15' E 001°46'7 7.2
2015-Mar-22 13:33N 51°21' E 001°53'8 8.4
2015-Mar-22 12:34N 51°28' E 002°01'16010.0
2015-Mar-21 20:30N 53°35' E 004°39'9 9.3
2015-Mar-21 19:33N 53°44' E 004°44'12 9.2
2015-Mar-21 18:15N 53°55' E 004°49'7 9.3
2015-Mar-21 17:32N 54°02' E 004°51'9 9.5
2015-Mar-21 16:33N 54°11' E 004°54'10 9.8
2015-Mar-21 15:32N 54°21' E 004°58'279 9.3
2015-Mar-20 09:33N 57°49' E 010°30'8 8.4
2015-Mar-20 08:33N 57°45' E 010°44'5 5.4
2015-Mar-20 07:33N 57°42' E 010°36'0 0.1
2015-Mar-20 06:30N 57°42' E 010°36'0 0.0
2015-Mar-20 05:30N 57°42' E 010°36'0 0.0
2015-Mar-20 04:30N 57°42' E 010°36'2 1.8
2015-Mar-20 03:32N 57°43' E 010°39'6 6.3
2015-Mar-20 02:32N 57°45' E 010°50'7 7.4
2015-Mar-20 01:33N 57°47' E 011°03'8 8.3
2015-Mar-20 00:33N 57°50' E 011°17'8 8.5
2015-Mar-19 23:33N 57°54' E 011°32'10 9.8
2015-Mar-19 22:33N 58°00' E 011°46'1010.0
2015-Mar-19 21:33N 58°10' E 011°51'10 9.3
2015-Mar-19 20:30N 58°20' E 011°51'2 0.3
2015-Mar-19 12:25N 58°21' E 011°55'  
2015-Mar-16 10:28N 58°21' E 011°54'6 6.8
2015-Mar-16 09:32N 58°15' E 011°50'1110.7
2015-Mar-16 08:33N 58°04' E 011°47'1010.0
2015-Mar-16 07:33N 57°55' E 011°38'1010.0
2015-Mar-16 06:33N 57°51' E 011°21'10 9.6
2015-Mar-16 05:33N 57°53' E 011°03'9 9.1
2015-Mar-16 04:33N 57°54' E 010°47'9 9.1
2015-Mar-16 03:33N 57°56' E 010°30'10 8.0
2015-Mar-16 02:18N 57°53' E 010°12'78 8.8
2015-Mar-15 17:26N 57°07' E 008°15'19 8.5
2015-Mar-15 15:11N 56°56' E 007°47'193 7.5
2015-Mar-14 13:30N 54°07' E 004°60'10 7.7
2015-Mar-14 12:08N 53°57' E 004°57'5 7.7
2015-Mar-14 11:33N 53°52' E 004°55'8 7.8
2015-Mar-14 10:33N 53°45' E 004°53'8 7.8
2015-Mar-14 09:32N 53°37' E 004°50'19 7.7
2015-Mar-14 07:04N 53°19' E 004°38'27 6.8
2015-Mar-14 03:07N 52°55' E 004°19'4 7.3
2015-Mar-14 02:33N 52°52' E 004°16'7 7.1
2015-Mar-14 01:33N 52°46' E 004°10'7 7.2
2015-Mar-14 00:34N 52°39' E 004°06'8 7.8
2015-Mar-13 23:33N 52°32' E 004°11'5 4.5
2015-Mar-13 22:33N 52°31' E 004°18'0 0.1
2015-Mar-13 21:33N 52°31' E 004°19'0 0.0
2015-Mar-13 20:33N 52°31' E 004°19'0 0.0
2015-Mar-13 19:33N 52°31' E 004°19'0 0.0
2015-Mar-13 18:33N 52°31' E 004°18'0 0.1
2015-Mar-13 17:33N 52°31' E 004°18'0 0.0
2015-Mar-13 16:33N 52°31' E 004°18'0 0.0
2015-Mar-13 15:33N 52°31' E 004°18'0 0.0
2015-Mar-13 14:30N 52°31' E 004°18'0 0.0
2015-Mar-13 13:32N 52°31' E 004°18'0 0.0
2015-Mar-13 12:32N 52°31' E 004°18'0 0.1
2015-Mar-13 11:32N 52°31' E 004°19'0 0.0
2015-Mar-13 10:29N 52°31' E 004°19'0 0.0
2015-Mar-13 09:33N 52°31' E 004°19'6 6.3
2015-Mar-13 08:33N 52°29' E 004°28'5 5.1
2015-Mar-13 07:33N 52°28' E 004°36'6 6.1
2015-Mar-13 06:33N 52°26' E 004°46'3 2.6
2015-Mar-13 05:34N 52°25' E 004°50'0 0.0
2015-Mar-13 04:34N 52°25' E 004°50'0 0.0
2015-Mar-13 03:33N 52°25' E 004°50'0 0.0
2015-Mar-13 02:33N 52°25' E 004°50'0 0.0
2015-Mar-13 01:33N 52°25' E 004°50'0 0.0
2015-Mar-13 00:33N 52°25' E 004°50'0 0.0
2015-Mar-12 23:30N 52°25' E 004°50'0 0.0
2015-Mar-12 22:33N 52°25' E 004°50'  
Track history (hours):
 
Tides and Currents Weather Stations Pressure Air Temp Water Temp Dewpoint Dewpoint Depression Visibility Wind Speed Wind Dir Waves Ship Positions

Lehmann Sound

Last reported at 2015-Mar-22 22:07 UTC. Time now 2015-Mar-27 11:59 UTC.
Position N 50°34' E 000°17'.

Length 90 m; draft 5.9 m.

Type: Cargo ship. MMSI: 305476000.

Date/timePositionNaut miles runAvg speedWind from/ knotsBaromVisibWave heightAir tempDewpointWater temp
2015-Mar-22 22:07N 50°34' E 000°17'5 7.9
2015-Mar-22 21:32N 50°35' E 000°24'9 9.0
2015-Mar-22 20:33N 50°38' E 000°37'1110.8
2015-Mar-22 19:33N 50°45' E 000°50'1511.1
2015-Mar-22 18:13N 50°54' E 001°08'1010.9
2015-Mar-22 17:20N 51°00' E 001°19'810.0
2015-Mar-22 16:33N 51°05' E 001°29'8 7.8
2015-Mar-22 15:34N 51°10' E 001°38'7 6.9
2015-Mar-22 14:33N 51°15' E 001°46'7 7.2
2015-Mar-22 13:33N 51°21' E 001°53'8 8.4
2015-Mar-22 12:34N 51°28' E 002°01'16010.0
2015-Mar-21 20:30N 53°35' E 004°39'9 9.3
2015-Mar-21 19:33N 53°44' E 004°44'12 9.2
2015-Mar-21 18:15N 53°55' E 004°49'7 9.3
2015-Mar-21 17:32N 54°02' E 004°51'9 9.5
2015-Mar-21 16:33N 54°11' E 004°54'10 9.8
2015-Mar-21 15:32N 54°21' E 004°58'279 9.3
2015-Mar-20 09:33N 57°49' E 010°30'8 8.4
2015-Mar-20 08:33N 57°45' E 010°44'5 5.4
2015-Mar-20 07:33N 57°42' E 010°36'0 0.1
2015-Mar-20 06:30N 57°42' E 010°36'0 0.0
2015-Mar-20 05:30N 57°42' E 010°36'0 0.0
2015-Mar-20 04:30N 57°42' E 010°36'2 1.8
2015-Mar-20 03:32N 57°43' E 010°39'6 6.3
2015-Mar-20 02:32N 57°45' E 010°50'7 7.4
2015-Mar-20 01:33N 57°47' E 011°03'8 8.3
2015-Mar-20 00:33N 57°50' E 011°17'8 8.5
2015-Mar-19 23:33N 57°54' E 011°32'10 9.8
2015-Mar-19 22:33N 58°00' E 011°46'1010.0
2015-Mar-19 21:33N 58°10' E 011°51'10 9.3
2015-Mar-19 20:30N 58°20' E 011°51'2 0.3
2015-Mar-19 12:25N 58°21' E 011°55'  
2015-Mar-16 10:28N 58°21' E 011°54'6 6.8
2015-Mar-16 09:32N 58°15' E 011°50'1110.7
2015-Mar-16 08:33N 58°04' E 011°47'1010.0
2015-Mar-16 07:33N 57°55' E 011°38'1010.0
2015-Mar-16 06:33N 57°51' E 011°21'10 9.6
2015-Mar-16 05:33N 57°53' E 011°03'9 9.1
2015-Mar-16 04:33N 57°54' E 010°47'9 9.1
2015-Mar-16 03:33N 57°56' E 010°30'10 8.0
2015-Mar-16 02:18N 57°53' E 010°12'78 8.8
2015-Mar-15 17:26N 57°07' E 008°15'19 8.5
2015-Mar-15 15:11N 56°56' E 007°47'193 7.5
2015-Mar-14 13:30N 54°07' E 004°60'10 7.7
2015-Mar-14 12:08N 53°57' E 004°57'5 7.7
2015-Mar-14 11:33N 53°52' E 004°55'8 7.8
2015-Mar-14 10:33N 53°45' E 004°53'8 7.8
2015-Mar-14 09:32N 53°37' E 004°50'19 7.7
2015-Mar-14 07:04N 53°19' E 004°38'27 6.8
2015-Mar-14 03:07N 52°55' E 004°19'4 7.3
2015-Mar-14 02:33N 52°52' E 004°16'7 7.1
2015-Mar-14 01:33N 52°46' E 004°10'7 7.2
2015-Mar-14 00:34N 52°39' E 004°06'8 7.8
2015-Mar-13 23:33N 52°32' E 004°11'5 4.5
2015-Mar-13 22:33N 52°31' E 004°18'0 0.1
2015-Mar-13 21:33N 52°31' E 004°19'0 0.0
2015-Mar-13 20:33N 52°31' E 004°19'0 0.0
2015-Mar-13 19:33N 52°31' E 004°19'0 0.0
2015-Mar-13 18:33N 52°31' E 004°18'0 0.1
2015-Mar-13 17:33N 52°31' E 004°18'0 0.0
2015-Mar-13 16:33N 52°31' E 004°18'0 0.0
2015-Mar-13 15:33N 52°31' E 004°18'0 0.0
2015-Mar-13 14:30N 52°31' E 004°18'0 0.0
2015-Mar-13 13:32N 52°31' E 004°18'0 0.0
2015-Mar-13 12:32N 52°31' E 004°18'0 0.1
2015-Mar-13 11:32N 52°31' E 004°19'0 0.0
2015-Mar-13 10:29N 52°31' E 004°19'0 0.0
2015-Mar-13 09:33N 52°31' E 004°19'6 6.3
2015-Mar-13 08:33N 52°29' E 004°28'5 5.1
2015-Mar-13 07:33N 52°28' E 004°36'6 6.1
2015-Mar-13 06:33N 52°26' E 004°46'3 2.6
2015-Mar-13 05:34N 52°25' E 004°50'0 0.0
2015-Mar-13 04:34N 52°25' E 004°50'0 0.0
2015-Mar-13 03:33N 52°25' E 004°50'0 0.0
2015-Mar-13 02:33N 52°25' E 004°50'0 0.0
2015-Mar-13 01:33N 52°25' E 004°50'0 0.0
2015-Mar-13 00:33N 52°25' E 004°50'0 0.0
2015-Mar-12 23:30N 52°25' E 004°50'0 0.0
2015-Mar-12 22:33N 52°25' E 004°50'  

Dump ship's entire track history